sensor_id;sensor_type;location;lat;lon;timestamp;P1;durP1;ratioP1;P2;durP2;ratioP2
42036;SDS011;30340;52.004;5.908;2023-12-07T00:00:31;3.17;;;1.90;;
42036;SDS011;30340;52.004;5.908;2023-12-07T00:02:57;2.88;;;2.20;;
42036;SDS011;30340;52.004;5.908;2023-12-07T00:05:24;2.90;;;2.10;;
42036;SDS011;30340;52.004;5.908;2023-12-07T00:07:50;3.03;;;2.35;;
42036;SDS011;30340;52.004;5.908;2023-12-07T00:10:15;3.08;;;2.15;;
42036;SDS011;30340;52.004;5.908;2023-12-07T00:12:41;3.75;;;2.25;;
42036;SDS011;30340;52.004;5.908;2023-12-07T00:15:06;2.95;;;2.00;;
42036;SDS011;30340;52.004;5.908;2023-12-07T00:17:32;3.05;;;2.22;;
42036;SDS011;30340;52.004;5.908;2023-12-07T00:19:58;3.80;;;2.30;;
42036;SDS011;30340;52.004;5.908;2023-12-07T00:22:23;3.10;;;2.20;;
42036;SDS011;30340;52.004;5.908;2023-12-07T00:24:50;2.90;;;2.13;;
42036;SDS011;30340;52.004;5.908;2023-12-07T00:27:16;3.22;;;2.15;;
42036;SDS011;30340;52.004;5.908;2023-12-07T00:29:41;3.22;;;2.22;;
42036;SDS011;30340;52.004;5.908;2023-12-07T00:32:07;2.60;;;2.10;;
42036;SDS011;30340;52.004;5.908;2023-12-07T00:34:32;3.20;;;2.10;;
42036;SDS011;30340;52.004;5.908;2023-12-07T00:36:58;3.10;;;2.10;;
42036;SDS011;30340;52.004;5.908;2023-12-07T00:39:23;2.45;;;1.88;;
42036;SDS011;30340;52.004;5.908;2023-12-07T00:41:49;2.38;;;1.80;;
42036;SDS011;30340;52.004;5.908;2023-12-07T00:44:14;3.30;;;2.05;;
42036;SDS011;30340;52.004;5.908;2023-12-07T00:46:40;4.13;;;1.98;;
42036;SDS011;30340;52.004;5.908;2023-12-07T00:49:06;2.80;;;1.85;;
42036;SDS011;30340;52.004;5.908;2023-12-07T00:51:31;3.63;;;2.10;;
42036;SDS011;30340;52.004;5.908;2023-12-07T00:53:57;3.30;;;2.00;;
42036;SDS011;30340;52.004;5.908;2023-12-07T00:56:23;3.15;;;2.13;;
42036;SDS011;30340;52.004;5.908;2023-12-07T00:58:50;3.63;;;2.40;;
42036;SDS011;30340;52.004;5.908;2023-12-07T01:01:15;3.22;;;2.25;;
42036;SDS011;30340;52.004;5.908;2023-12-07T01:03:41;2.90;;;2.00;;
42036;SDS011;30340;52.004;5.908;2023-12-07T01:06:07;3.38;;;2.38;;
42036;SDS011;30340;52.004;5.908;2023-12-07T01:08:33;2.75;;;2.00;;
42036;SDS011;30340;52.004;5.908;2023-12-07T01:10:58;3.17;;;2.10;;
42036;SDS011;30340;52.004;5.908;2023-12-07T01:13:24;4.45;;;2.45;;
42036;SDS011;30340;52.004;5.908;2023-12-07T01:15:50;3.03;;;2.03;;
42036;SDS011;30340;52.004;5.908;2023-12-07T01:18:15;2.22;;;1.83;;
42036;SDS011;30340;52.004;5.908;2023-12-07T01:20:41;2.63;;;2.00;;
42036;SDS011;30340;52.004;5.908;2023-12-07T01:23:07;3.00;;;2.20;;
42036;SDS011;30340;52.004;5.908;2023-12-07T01:25:33;2.35;;;1.80;;
42036;SDS011;30340;52.004;5.908;2023-12-07T01:27:59;2.78;;;2.03;;
42036;SDS011;30340;52.004;5.908;2023-12-07T01:30:25;2.50;;;2.00;;
42036;SDS011;30340;52.004;5.908;2023-12-07T01:32:50;3.50;;;2.08;;
42036;SDS011;30340;52.004;5.908;2023-12-07T01:35:16;2.88;;;1.98;;
42036;SDS011;30340;52.004;5.908;2023-12-07T01:37:41;2.17;;;1.80;;
42036;SDS011;30340;52.004;5.908;2023-12-07T01:40:07;3.20;;;2.20;;
42036;SDS011;30340;52.004;5.908;2023-12-07T01:42:35;3.40;;;2.00;;
42036;SDS011;30340;52.004;5.908;2023-12-07T01:45:04;2.63;;;2.00;;
42036;SDS011;30340;52.004;5.908;2023-12-07T01:47:31;2.97;;;2.00;;
42036;SDS011;30340;52.004;5.908;2023-12-07T01:49:57;3.05;;;2.05;;
42036;SDS011;30340;52.004;5.908;2023-12-07T01:52:25;3.53;;;2.03;;
42036;SDS011;30340;52.004;5.908;2023-12-07T01:54:53;2.90;;;2.40;;
42036;SDS011;30340;52.004;5.908;2023-12-07T01:57:19;2.95;;;2.25;;
42036;SDS011;30340;52.004;5.908;2023-12-07T01:59:45;3.83;;;2.40;;
42036;SDS011;30340;52.004;5.908;2023-12-07T02:02:11;5.00;;;2.55;;
42036;SDS011;30340;52.004;5.908;2023-12-07T02:04:37;5.82;;;3.08;;
42036;SDS011;30340;52.004;5.908;2023-12-07T02:07:03;3.75;;;2.45;;
42036;SDS011;30340;52.004;5.908;2023-12-07T02:09:30;4.43;;;2.60;;
42036;SDS011;30340;52.004;5.908;2023-12-07T02:11:56;4.95;;;3.10;;
42036;SDS011;30340;52.004;5.908;2023-12-07T02:14:23;3.22;;;2.42;;
42036;SDS011;30340;52.004;5.908;2023-12-07T02:16:50;2.88;;;2.05;;
42036;SDS011;30340;52.004;5.908;2023-12-07T02:22:18;3.33;;;2.17;;
42036;SDS011;30340;52.004;5.908;2023-12-07T02:25:26;3.22;;;2.15;;
42036;SDS011;30340;52.004;5.908;2023-12-07T02:27:48;6.95;;;2.30;;
42036;SDS011;30340;52.004;5.908;2023-12-07T02:30:14;4.57;;;2.38;;
42036;SDS011;30340;52.004;5.908;2023-12-07T02:32:40;3.25;;;2.20;;
42036;SDS011;30340;52.004;5.908;2023-12-07T02:35:09;2.88;;;2.20;;
42036;SDS011;30340;52.004;5.908;2023-12-07T02:37:40;3.55;;;2.30;;
42036;SDS011;30340;52.004;5.908;2023-12-07T02:40:08;3.47;;;2.10;;
42036;SDS011;30340;52.004;5.908;2023-12-07T02:42:35;3.20;;;2.30;;
42036;SDS011;30340;52.004;5.908;2023-12-07T02:45:03;2.85;;;2.10;;
42036;SDS011;30340;52.004;5.908;2023-12-07T02:47:29;2.45;;;1.90;;
42036;SDS011;30340;52.004;5.908;2023-12-07T02:49:55;3.72;;;2.30;;
42036;SDS011;30340;52.004;5.908;2023-12-07T02:52:21;2.78;;;1.92;;
42036;SDS011;30340;52.004;5.908;2023-12-07T02:54:46;2.42;;;1.90;;
42036;SDS011;30340;52.004;5.908;2023-12-07T02:57:13;2.67;;;2.05;;
42036;SDS011;30340;52.004;5.908;2023-12-07T02:59:39;3.00;;;1.90;;
42036;SDS011;30340;52.004;5.908;2023-12-07T03:02:05;3.75;;;2.78;;
42036;SDS011;30340;52.004;5.908;2023-12-07T03:04:31;2.72;;;2.17;;
42036;SDS011;30340;52.004;5.908;2023-12-07T03:06:57;4.20;;;2.50;;
42036;SDS011;30340;52.004;5.908;2023-12-07T03:09:23;6.72;;;2.20;;
42036;SDS011;30340;52.004;5.908;2023-12-07T03:11:49;2.40;;;1.90;;
42036;SDS011;30340;52.004;5.908;2023-12-07T03:14:15;2.67;;;2.10;;
42036;SDS011;30340;52.004;5.908;2023-12-07T03:16:41;2.63;;;2.10;;
42036;SDS011;30340;52.004;5.908;2023-12-07T03:19:06;2.60;;;2.00;;
42036;SDS011;30340;52.004;5.908;2023-12-07T03:21:32;3.45;;;2.30;;
42036;SDS011;30340;52.004;5.908;2023-12-07T03:23:57;2.95;;;2.28;;
42036;SDS011;30340;52.004;5.908;2023-12-07T03:26:23;4.47;;;2.90;;
42036;SDS011;30340;52.004;5.908;2023-12-07T03:28:48;4.43;;;2.90;;
42036;SDS011;30340;52.004;5.908;2023-12-07T03:31:14;4.90;;;3.47;;
42036;SDS011;30340;52.004;5.908;2023-12-07T03:33:41;5.15;;;3.30;;
42036;SDS011;30340;52.004;5.908;2023-12-07T03:36:10;5.07;;;3.30;;
42036;SDS011;30340;52.004;5.908;2023-12-07T03:38:36;8.35;;;4.68;;
42036;SDS011;30340;52.004;5.908;2023-12-07T03:41:02;4.93;;;3.40;;
42036;SDS011;30340;52.004;5.908;2023-12-07T03:43:28;5.78;;;3.80;;
42036;SDS011;30340;52.004;5.908;2023-12-07T03:45:54;7.03;;;3.85;;
42036;SDS011;30340;52.004;5.908;2023-12-07T03:48:20;6.38;;;4.00;;
42036;SDS011;30340;52.004;5.908;2023-12-07T03:50:45;5.10;;;3.60;;
42036;SDS011;30340;52.004;5.908;2023-12-07T03:53:11;4.22;;;2.88;;
42036;SDS011;30340;52.004;5.908;2023-12-07T03:55:37;4.80;;;3.20;;
42036;SDS011;30340;52.004;5.908;2023-12-07T03:58:03;4.30;;;2.80;;
42036;SDS011;30340;52.004;5.908;2023-12-07T04:00:29;4.55;;;3.00;;
42036;SDS011;30340;52.004;5.908;2023-12-07T04:02:57;7.68;;;4.35;;
42036;SDS011;30340;52.004;5.908;2023-12-07T04:05:22;5.25;;;3.67;;
42036;SDS011;30340;52.004;5.908;2023-12-07T04:07:48;6.05;;;4.00;;
42036;SDS011;30340;52.004;5.908;2023-12-07T04:10:14;4.45;;;3.17;;
42036;SDS011;30340;52.004;5.908;2023-12-07T04:12:39;4.82;;;3.10;;
42036;SDS011;30340;52.004;5.908;2023-12-07T04:15:05;5.55;;;3.60;;
42036;SDS011;30340;52.004;5.908;2023-12-07T04:17:31;5.15;;;3.17;;
42036;SDS011;30340;52.004;5.908;2023-12-07T04:19:57;3.13;;;2.60;;
42036;SDS011;30340;52.004;5.908;2023-12-07T04:22:22;3.53;;;2.47;;
42036;SDS011;30340;52.004;5.908;2023-12-07T04:24:48;5.43;;;3.60;;
42036;SDS011;30340;52.004;5.908;2023-12-07T04:27:15;3.55;;;2.58;;
42036;SDS011;30340;52.004;5.908;2023-12-07T04:29:40;3.40;;;2.70;;
42036;SDS011;30340;52.004;5.908;2023-12-07T04:32:07;6.25;;;3.97;;
42036;SDS011;30340;52.004;5.908;2023-12-07T04:34:33;5.13;;;3.30;;
42036;SDS011;30340;52.004;5.908;2023-12-07T04:36:58;5.18;;;2.90;;
42036;SDS011;30340;52.004;5.908;2023-12-07T04:39:24;4.32;;;3.00;;
42036;SDS011;30340;52.004;5.908;2023-12-07T04:41:49;6.18;;;3.25;;
42036;SDS011;30340;52.004;5.908;2023-12-07T04:44:16;6.72;;;3.90;;
42036;SDS011;30340;52.004;5.908;2023-12-07T04:46:41;10.75;;;5.65;;
42036;SDS011;30340;52.004;5.908;2023-12-07T04:49:07;6.50;;;4.07;;
42036;SDS011;30340;52.004;5.908;2023-12-07T04:51:33;5.25;;;3.40;;
42036;SDS011;30340;52.004;5.908;2023-12-07T04:53:59;6.82;;;3.80;;
42036;SDS011;30340;52.004;5.908;2023-12-07T04:56:25;4.70;;;3.20;;
42036;SDS011;30340;52.004;5.908;2023-12-07T04:58:50;5.03;;;3.03;;
42036;SDS011;30340;52.004;5.908;2023-12-07T05:01:16;9.40;;;4.55;;
42036;SDS011;30340;52.004;5.908;2023-12-07T05:03:43;7.63;;;3.42;;
42036;SDS011;30340;52.004;5.908;2023-12-07T05:06:09;8.05;;;4.22;;
42036;SDS011;30340;52.004;5.908;2023-12-07T05:08:35;10.15;;;4.03;;
42036;SDS011;30340;52.004;5.908;2023-12-07T05:11:00;7.38;;;2.88;;
42036;SDS011;30340;52.004;5.908;2023-12-07T05:13:26;3.67;;;2.50;;
42036;SDS011;30340;52.004;5.908;2023-12-07T05:15:52;7.90;;;2.80;;
42036;SDS011;30340;52.004;5.908;2023-12-07T05:18:17;8.30;;;4.00;;
42036;SDS011;30340;52.004;5.908;2023-12-07T05:20:43;6.93;;;4.20;;
42036;SDS011;30340;52.004;5.908;2023-12-07T05:23:08;5.32;;;2.97;;
42036;SDS011;30340;52.004;5.908;2023-12-07T05:25:34;6.47;;;3.10;;
42036;SDS011;30340;52.004;5.908;2023-12-07T05:27:59;5.82;;;3.22;;
42036;SDS011;30340;52.004;5.908;2023-12-07T05:30:25;9.63;;;4.95;;
42036;SDS011;30340;52.004;5.908;2023-12-07T05:32:50;5.50;;;3.25;;
42036;SDS011;30340;52.004;5.908;2023-12-07T05:35:16;6.15;;;3.40;;
42036;SDS011;30340;52.004;5.908;2023-12-07T05:37:42;8.52;;;4.22;;
42036;SDS011;30340;52.004;5.908;2023-12-07T05:40:07;5.40;;;3.67;;
42036;SDS011;30340;52.004;5.908;2023-12-07T05:42:34;4.10;;;2.83;;
42036;SDS011;30340;52.004;5.908;2023-12-07T05:45:00;8.25;;;2.80;;
42036;SDS011;30340;52.004;5.908;2023-12-07T05:47:26;3.33;;;2.40;;
42036;SDS011;30340;52.004;5.908;2023-12-07T05:49:51;9.93;;;4.45;;
42036;SDS011;30340;52.004;5.908;2023-12-07T05:52:17;5.25;;;3.50;;
42036;SDS011;30340;52.004;5.908;2023-12-07T05:54:42;7.53;;;3.90;;
42036;SDS011;30340;52.004;5.908;2023-12-07T05:57:11;7.00;;;3.85;;
42036;SDS011;30340;52.004;5.908;2023-12-07T05:59:38;6.10;;;3.38;;
42036;SDS011;30340;52.004;5.908;2023-12-07T06:02:03;10.40;;;4.90;;
42036;SDS011;30340;52.004;5.908;2023-12-07T06:04:29;12.50;;;5.53;;
42036;SDS011;30340;52.004;5.908;2023-12-07T06:06:55;7.97;;;4.78;;
42036;SDS011;30340;52.004;5.908;2023-12-07T06:09:21;6.53;;;4.40;;
42036;SDS011;30340;52.004;5.908;2023-12-07T06:11:47;10.60;;;4.20;;
42036;SDS011;30340;52.004;5.908;2023-12-07T06:14:13;5.65;;;3.50;;
42036;SDS011;30340;52.004;5.908;2023-12-07T06:16:38;8.27;;;5.30;;
42036;SDS011;30340;52.004;5.908;2023-12-07T06:19:04;17.60;;;6.63;;
42036;SDS011;30340;52.004;5.908;2023-12-07T06:21:30;10.25;;;5.50;;
42036;SDS011;30340;52.004;5.908;2023-12-07T06:23:56;9.27;;;4.30;;
42036;SDS011;30340;52.004;5.908;2023-12-07T06:26:22;9.52;;;5.28;;
42036;SDS011;30340;52.004;5.908;2023-12-07T06:28:47;7.75;;;4.55;;
42036;SDS011;30340;52.004;5.908;2023-12-07T06:31:13;5.18;;;3.40;;
42036;SDS011;30340;52.004;5.908;2023-12-07T06:33:45;4.78;;;3.20;;
42036;SDS011;30340;52.004;5.908;2023-12-07T06:36:10;10.50;;;5.50;;
42036;SDS011;30340;52.004;5.908;2023-12-07T06:38:36;8.55;;;5.40;;
42036;SDS011;30340;52.004;5.908;2023-12-07T06:41:03;6.05;;;3.80;;
42036;SDS011;30340;52.004;5.908;2023-12-07T06:43:28;7.03;;;4.32;;
42036;SDS011;30340;52.004;5.908;2023-12-07T06:45:54;6.38;;;4.00;;
42036;SDS011;30340;52.004;5.908;2023-12-07T06:48:19;8.13;;;5.00;;
42036;SDS011;30340;52.004;5.908;2023-12-07T06:50:45;10.18;;;5.35;;
42036;SDS011;30340;52.004;5.908;2023-12-07T06:53:11;14.02;;;5.13;;
42036;SDS011;30340;52.004;5.908;2023-12-07T06:55:36;8.07;;;4.53;;
42036;SDS011;30340;52.004;5.908;2023-12-07T06:58:02;5.50;;;4.00;;
42036;SDS011;30340;52.004;5.908;2023-12-07T07:00:28;6.35;;;3.65;;
42036;SDS011;30340;52.004;5.908;2023-12-07T07:02:53;7.43;;;3.40;;
42036;SDS011;30340;52.004;5.908;2023-12-07T07:05:19;4.53;;;2.90;;
42036;SDS011;30340;52.004;5.908;2023-12-07T07:07:44;5.20;;;3.78;;
42036;SDS011;30340;52.004;5.908;2023-12-07T07:10:10;5.72;;;3.83;;
42036;SDS011;30340;52.004;5.908;2023-12-07T07:12:37;9.63;;;5.35;;
42036;SDS011;30340;52.004;5.908;2023-12-07T07:15:03;10.15;;;5.88;;
42036;SDS011;30340;52.004;5.908;2023-12-07T07:17:29;8.32;;;4.47;;
42036;SDS011;30340;52.004;5.908;2023-12-07T07:19:54;6.03;;;3.83;;
42036;SDS011;30340;52.004;5.908;2023-12-07T07:22:20;9.07;;;4.90;;
42036;SDS011;30340;52.004;5.908;2023-12-07T07:24:46;13.88;;;5.35;;
42036;SDS011;30340;52.004;5.908;2023-12-07T07:27:12;9.45;;;5.35;;
42036;SDS011;30340;52.004;5.908;2023-12-07T07:29:38;7.45;;;4.28;;
42036;SDS011;30340;52.004;5.908;2023-12-07T07:32:04;6.00;;;4.07;;
42036;SDS011;30340;52.004;5.908;2023-12-07T07:34:30;4.50;;;3.03;;
42036;SDS011;30340;52.004;5.908;2023-12-07T07:36:56;7.20;;;3.38;;
42036;SDS011;30340;52.004;5.908;2023-12-07T07:39:21;4.68;;;3.30;;
42036;SDS011;30340;52.004;5.908;2023-12-07T07:41:47;3.80;;;2.85;;
42036;SDS011;30340;52.004;5.908;2023-12-07T07:44:13;6.40;;;3.70;;
42036;SDS011;30340;52.004;5.908;2023-12-07T07:46:44;5.57;;;3.80;;
42036;SDS011;30340;52.004;5.908;2023-12-07T07:49:11;3.72;;;2.78;;
42036;SDS011;30340;52.004;5.908;2023-12-07T07:51:37;5.88;;;3.55;;
42036;SDS011;30340;52.004;5.908;2023-12-07T07:54:03;4.22;;;3.20;;
42036;SDS011;30340;52.004;5.908;2023-12-07T07:56:29;5.68;;;3.80;;
42036;SDS011;30340;52.004;5.908;2023-12-07T07:58:54;5.25;;;3.53;;
42036;SDS011;30340;52.004;5.908;2023-12-07T08:01:20;4.28;;;3.10;;
42036;SDS011;30340;52.004;5.908;2023-12-07T08:03:45;10.63;;;4.25;;
42036;SDS011;30340;52.004;5.908;2023-12-07T08:06:11;5.55;;;3.60;;
42036;SDS011;30340;52.004;5.908;2023-12-07T08:08:37;6.40;;;3.53;;
42036;SDS011;30340;52.004;5.908;2023-12-07T08:11:02;5.53;;;3.00;;
42036;SDS011;30340;52.004;5.908;2023-12-07T08:13:30;5.88;;;3.28;;
42036;SDS011;30340;52.004;5.908;2023-12-07T08:15:55;4.47;;;3.15;;
42036;SDS011;30340;52.004;5.908;2023-12-07T08:18:21;5.45;;;4.10;;
42036;SDS011;30340;52.004;5.908;2023-12-07T08:20:47;6.82;;;3.90;;
42036;SDS011;30340;52.004;5.908;2023-12-07T08:23:13;5.90;;;3.65;;
42036;SDS011;30340;52.004;5.908;2023-12-07T08:25:38;7.32;;;4.40;;
42036;SDS011;30340;52.004;5.908;2023-12-07T08:28:05;4.60;;;3.08;;
42036;SDS011;30340;52.004;5.908;2023-12-07T08:30:30;5.63;;;4.28;;
42036;SDS011;30340;52.004;5.908;2023-12-07T08:32:56;4.57;;;3.15;;
42036;SDS011;30340;52.004;5.908;2023-12-07T08:35:22;8.65;;;3.45;;
42036;SDS011;30340;52.004;5.908;2023-12-07T08:37:48;5.68;;;3.67;;
42036;SDS011;30340;52.004;5.908;2023-12-07T08:40:13;4.95;;;3.10;;
42036;SDS011;30340;52.004;5.908;2023-12-07T08:42:40;3.67;;;2.95;;
42036;SDS011;30340;52.004;5.908;2023-12-07T08:45:10;6.40;;;3.58;;
42036;SDS011;30340;52.004;5.908;2023-12-07T08:47:36;5.88;;;3.80;;
42036;SDS011;30340;52.004;5.908;2023-12-07T08:50:01;10.73;;;4.60;;
42036;SDS011;30340;52.004;5.908;2023-12-07T08:52:27;6.68;;;4.15;;
42036;SDS011;30340;52.004;5.908;2023-12-07T08:54:53;6.15;;;3.85;;
42036;SDS011;30340;52.004;5.908;2023-12-07T08:57:19;4.85;;;3.08;;
42036;SDS011;30340;52.004;5.908;2023-12-07T08:59:44;5.88;;;3.45;;
42036;SDS011;30340;52.004;5.908;2023-12-07T09:02:10;5.78;;;3.08;;
42036;SDS011;30340;52.004;5.908;2023-12-07T09:04:36;4.53;;;2.60;;
42036;SDS011;30340;52.004;5.908;2023-12-07T09:07:04;3.50;;;2.35;;
42036;SDS011;30340;52.004;5.908;2023-12-07T09:09:30;5.68;;;3.10;;
42036;SDS011;30340;52.004;5.908;2023-12-07T09:11:55;7.55;;;3.90;;
42036;SDS011;30340;52.004;5.908;2023-12-07T09:14:21;8.30;;;4.15;;
42036;SDS011;30340;52.004;5.908;2023-12-07T09:16:47;6.65;;;3.85;;
42036;SDS011;30340;52.004;5.908;2023-12-07T09:19:13;10.35;;;3.85;;
42036;SDS011;30340;52.004;5.908;2023-12-07T09:21:39;6.40;;;3.30;;
42036;SDS011;30340;52.004;5.908;2023-12-07T09:24:05;8.77;;;4.78;;
42036;SDS011;30340;52.004;5.908;2023-12-07T09:26:31;9.07;;;5.22;;
42036;SDS011;30340;52.004;5.908;2023-12-07T09:28:57;6.40;;;3.97;;
42036;SDS011;30340;52.004;5.908;2023-12-07T09:31:23;15.73;;;5.90;;
42036;SDS011;30340;52.004;5.908;2023-12-07T09:33:48;8.48;;;3.97;;
42036;SDS011;30340;52.004;5.908;2023-12-07T09:36:17;6.68;;;3.80;;
42036;SDS011;30340;52.004;5.908;2023-12-07T09:38:43;6.03;;;3.53;;
42036;SDS011;30340;52.004;5.908;2023-12-07T09:41:10;3.58;;;2.40;;
42036;SDS011;30340;52.004;5.908;2023-12-07T09:43:36;6.50;;;3.80;;
42036;SDS011;30340;52.004;5.908;2023-12-07T09:46:02;6.93;;;3.88;;
42036;SDS011;30340;52.004;5.908;2023-12-07T09:48:28;4.50;;;2.88;;
42036;SDS011;30340;52.004;5.908;2023-12-07T09:50:55;5.55;;;2.65;;
42036;SDS011;30340;52.004;5.908;2023-12-07T09:53:21;7.78;;;3.58;;
42036;SDS011;30340;52.004;5.908;2023-12-07T09:55:47;5.32;;;3.53;;
42036;SDS011;30340;52.004;5.908;2023-12-07T09:58:13;6.07;;;2.90;;
42036;SDS011;30340;52.004;5.908;2023-12-07T10:00:39;8.52;;;3.50;;
42036;SDS011;30340;52.004;5.908;2023-12-07T10:03:05;4.43;;;2.85;;
42036;SDS011;30340;52.004;5.908;2023-12-07T10:05:34;4.07;;;2.50;;
42036;SDS011;30340;52.004;5.908;2023-12-07T10:08:25;14.98;;;3.63;;
42036;SDS011;30340;52.004;5.908;2023-12-07T10:11:10;5.72;;;3.55;;
42036;SDS011;30340;52.004;5.908;2023-12-07T10:13:40;5.20;;;2.60;;
42036;SDS011;30340;52.004;5.908;2023-12-07T10:18:39;4.57;;;2.85;;
42036;SDS011;30340;52.004;5.908;2023-12-07T10:21:06;11.05;;;2.65;;
42036;SDS011;30340;52.004;5.908;2023-12-07T10:23:33;5.72;;;3.17;;
42036;SDS011;30340;52.004;5.908;2023-12-07T10:25:59;4.70;;;2.40;;
42036;SDS011;30340;52.004;5.908;2023-12-07T10:28:26;4.00;;;2.30;;
42036;SDS011;30340;52.004;5.908;2023-12-07T10:30:52;8.52;;;3.75;;
42036;SDS011;30340;52.004;5.908;2023-12-07T10:33:19;5.75;;;2.97;;
42036;SDS011;30340;52.004;5.908;2023-12-07T10:35:46;7.50;;;4.03;;
42036;SDS011;30340;52.004;5.908;2023-12-07T10:38:13;7.07;;;3.33;;
42036;SDS011;30340;52.004;5.908;2023-12-07T10:40:39;6.97;;;2.72;;
42036;SDS011;30340;52.004;5.908;2023-12-07T10:43:05;5.43;;;2.88;;
42036;SDS011;30340;52.004;5.908;2023-12-07T10:45:31;6.93;;;2.50;;
42036;SDS011;30340;52.004;5.908;2023-12-07T10:48:02;4.53;;;2.60;;
42036;SDS011;30340;52.004;5.908;2023-12-07T10:50:30;11.38;;;3.47;;
42036;SDS011;30340;52.004;5.908;2023-12-07T10:52:57;6.20;;;3.03;;
42036;SDS011;30340;52.004;5.908;2023-12-07T10:55:28;5.80;;;3.10;;
42036;SDS011;30340;52.004;5.908;2023-12-07T10:57:59;6.18;;;2.60;;
42036;SDS011;30340;52.004;5.908;2023-12-07T11:00:26;8.05;;;3.30;;
42036;SDS011;30340;52.004;5.908;2023-12-07T11:02:55;7.30;;;3.08;;
42036;SDS011;30340;52.004;5.908;2023-12-07T11:05:21;14.35;;;3.70;;
42036;SDS011;30340;52.004;5.908;2023-12-07T11:07:56;5.10;;;2.70;;
42036;SDS011;30340;52.004;5.908;2023-12-07T11:10:30;6.10;;;3.10;;
42036;SDS011;30340;52.004;5.908;2023-12-07T11:13:17;5.45;;;2.80;;
42036;SDS011;30340;52.004;5.908;2023-12-07T11:15:47;5.63;;;3.10;;
42036;SDS011;30340;52.004;5.908;2023-12-07T11:18:13;7.80;;;4.07;;
42036;SDS011;30340;52.004;5.908;2023-12-07T11:23:18;5.85;;;2.80;;
42036;SDS011;30340;52.004;5.908;2023-12-07T11:25:45;6.28;;;3.22;;
42036;SDS011;30340;52.004;5.908;2023-12-07T11:28:12;7.43;;;3.78;;
42036;SDS011;30340;52.004;5.908;2023-12-07T11:30:41;8.55;;;3.83;;
42036;SDS011;30340;52.004;5.908;2023-12-07T11:38:39;14.32;;;6.43;;
42036;SDS011;30340;52.004;5.908;2023-12-07T11:41:50;10.15;;;4.47;;
42036;SDS011;30340;52.004;5.908;2023-12-07T11:44:18;9.13;;;4.13;;
42036;SDS011;30340;52.004;5.908;2023-12-07T11:46:44;6.85;;;3.38;;
42036;SDS011;30340;52.004;5.908;2023-12-07T11:49:10;7.78;;;3.47;;
42036;SDS011;30340;52.004;5.908;2023-12-07T11:51:37;6.40;;;3.03;;
42036;SDS011;30340;52.004;5.908;2023-12-07T11:54:03;8.75;;;3.33;;
42036;SDS011;30340;52.004;5.908;2023-12-07T11:56:29;13.27;;;5.63;;
42036;SDS011;30340;52.004;5.908;2023-12-07T11:58:56;12.32;;;5.15;;
42036;SDS011;30340;52.004;5.908;2023-12-07T12:01:24;12.80;;;5.07;;
42036;SDS011;30340;52.004;5.908;2023-12-07T12:04:00;11.55;;;4.82;;
42036;SDS011;30340;52.004;5.908;2023-12-07T12:06:29;7.90;;;3.63;;
42036;SDS011;30340;52.004;5.908;2023-12-07T12:08:55;12.32;;;4.47;;
42036;SDS011;30340;52.004;5.908;2023-12-07T12:11:21;12.48;;;5.50;;
42036;SDS011;30340;52.004;5.908;2023-12-07T12:13:47;14.55;;;6.30;;
42036;SDS011;30340;52.004;5.908;2023-12-07T12:16:12;12.95;;;5.72;;
42036;SDS011;30340;52.004;5.908;2023-12-07T12:18:39;11.95;;;4.97;;
42036;SDS011;30340;52.004;5.908;2023-12-07T12:21:06;9.02;;;3.97;;
42036;SDS011;30340;52.004;5.908;2023-12-07T12:23:33;9.43;;;4.35;;
42036;SDS011;30340;52.004;5.908;2023-12-07T12:26:01;11.07;;;4.90;;
42036;SDS011;30340;52.004;5.908;2023-12-07T12:28:28;10.05;;;4.43;;
42036;SDS011;30340;52.004;5.908;2023-12-07T12:30:57;11.38;;;4.47;;
42036;SDS011;30340;52.004;5.908;2023-12-07T12:33:23;12.32;;;5.53;;
42036;SDS011;30340;52.004;5.908;2023-12-07T12:36:02;11.52;;;5.10;;
42036;SDS011;30340;52.004;5.908;2023-12-07T12:38:32;12.25;;;5.30;;
42036;SDS011;30340;52.004;5.908;2023-12-07T12:40:58;14.65;;;6.07;;
42036;SDS011;30340;52.004;5.908;2023-12-07T12:43:23;13.95;;;6.25;;
42036;SDS011;30340;52.004;5.908;2023-12-07T12:45:49;15.70;;;6.93;;
42036;SDS011;30340;52.004;5.908;2023-12-07T12:48:18;14.00;;;6.03;;
42036;SDS011;30340;52.004;5.908;2023-12-07T12:50:44;16.13;;;6.85;;
42036;SDS011;30340;52.004;5.908;2023-12-07T12:53:10;15.65;;;6.53;;
42036;SDS011;30340;52.004;5.908;2023-12-07T12:55:40;13.77;;;5.72;;
42036;SDS011;30340;52.004;5.908;2023-12-07T12:58:09;11.82;;;5.28;;
42036;SDS011;30340;52.004;5.908;2023-12-07T13:00:37;10.85;;;4.93;;
42036;SDS011;30340;52.004;5.908;2023-12-07T13:03:06;8.52;;;3.97;;
42036;SDS011;30340;52.004;5.908;2023-12-07T13:05:37;11.05;;;5.00;;
42036;SDS011;30340;52.004;5.908;2023-12-07T13:08:02;11.25;;;4.93;;
42036;SDS011;30340;52.004;5.908;2023-12-07T13:10:28;11.55;;;5.47;;
42036;SDS011;30340;52.004;5.908;2023-12-07T13:12:57;12.15;;;5.53;;
42036;SDS011;30340;52.004;5.908;2023-12-07T13:15:26;11.52;;;5.20;;
42036;SDS011;30340;52.004;5.908;2023-12-07T13:18:02;10.52;;;4.78;;
42036;SDS011;30340;52.004;5.908;2023-12-07T13:20:31;10.82;;;5.15;;
42036;SDS011;30340;52.004;5.908;2023-12-07T13:22:57;12.48;;;4.65;;
42036;SDS011;30340;52.004;5.908;2023-12-07T13:25:22;14.38;;;6.72;;
42036;SDS011;30340;52.004;5.908;2023-12-07T13:27:51;12.18;;;5.28;;
42036;SDS011;30340;52.004;5.908;2023-12-07T13:30:17;17.15;;;6.63;;
42036;SDS011;30340;52.004;5.908;2023-12-07T13:32:46;18.80;;;8.75;;
42036;SDS011;30340;52.004;5.908;2023-12-07T13:35:13;20.08;;;9.07;;
42036;SDS011;30340;52.004;5.908;2023-12-07T13:37:42;14.90;;;6.75;;
42036;SDS011;30340;52.004;5.908;2023-12-07T13:40:07;15.43;;;6.72;;
42036;SDS011;30340;52.004;5.908;2023-12-07T13:42:37;19.70;;;8.23;;
42036;SDS011;30340;52.004;5.908;2023-12-07T13:45:03;19.27;;;7.65;;
42036;SDS011;30340;52.004;5.908;2023-12-07T13:47:35;18.35;;;7.75;;
42036;SDS011;30340;52.004;5.908;2023-12-07T13:52:49;20.73;;;8.60;;
42036;SDS011;30340;52.004;5.908;2023-12-07T13:55:22;16.42;;;7.43;;
42036;SDS011;30340;52.004;5.908;2023-12-07T13:57:49;20.40;;;7.63;;
42036;SDS011;30340;52.004;5.908;2023-12-07T14:00:17;18.45;;;8.15;;
42036;SDS011;30340;52.004;5.908;2023-12-07T14:02:44;16.70;;;8.10;;
42036;SDS011;30340;52.004;5.908;2023-12-07T14:05:13;17.58;;;7.82;;
42036;SDS011;30340;52.004;5.908;2023-12-07T14:07:52;21.67;;;9.63;;
42036;SDS011;30340;52.004;5.908;2023-12-07T14:10:23;19.38;;;8.82;;
42036;SDS011;30340;52.004;5.908;2023-12-07T14:12:59;20.63;;;9.45;;
42036;SDS011;30340;52.004;5.908;2023-12-07T14:15:27;19.83;;;8.85;;
42036;SDS011;30340;52.004;5.908;2023-12-07T14:17:53;22.27;;;9.48;;
42036;SDS011;30340;52.004;5.908;2023-12-07T14:20:24;14.45;;;6.90;;
42036;SDS011;30340;52.004;5.908;2023-12-07T14:22:58;15.93;;;7.38;;
42036;SDS011;30340;52.004;5.908;2023-12-07T14:25:33;17.45;;;7.45;;
42036;SDS011;30340;52.004;5.908;2023-12-07T14:28:04;15.07;;;7.50;;
42036;SDS011;30340;52.004;5.908;2023-12-07T14:30:36;15.32;;;7.38;;
42036;SDS011;30340;52.004;5.908;2023-12-07T14:33:02;16.50;;;7.45;;
42036;SDS011;30340;52.004;5.908;2023-12-07T14:35:28;16.40;;;7.47;;
42036;SDS011;30340;52.004;5.908;2023-12-07T14:37:54;15.75;;;7.53;;
42036;SDS011;30340;52.004;5.908;2023-12-07T14:40:25;21.10;;;10.18;;
42036;SDS011;30340;52.004;5.908;2023-12-07T14:42:51;21.55;;;11.35;;
42036;SDS011;30340;52.004;5.908;2023-12-07T14:48:32;20.20;;;10.38;;
42036;SDS011;30340;52.004;5.908;2023-12-07T14:51:00;24.08;;;10.68;;
42036;SDS011;30340;52.004;5.908;2023-12-07T14:53:26;17.75;;;8.82;;
42036;SDS011;30340;52.004;5.908;2023-12-07T14:55:59;14.68;;;7.80;;
42036;SDS011;30340;52.004;5.908;2023-12-07T14:59:12;16.95;;;8.32;;
42036;SDS011;30340;52.004;5.908;2023-12-07T15:01:41;19.15;;;8.73;;